Time;durP1;ratioP1;P1;durP2;ratioP2;P2;SDS_P1;SDS_P2;PMS_P1;PMS_P2;Temp;Humidity;BMP_temperature;BMP_pressure;BME280_temperature;BME280_humidity;BME280_pressure;Samples;Min_cycle;Max_cycle;Signal;HPM_P1;HPM_P2
2022/01/11 00:00:47;;;;;;;11.63;9.03;;;;;;;4.76;78.37;96560.34;5018086;28;20237;-79
2022/01/11 00:03:16;;;;;;;10.90;9.13;;;;;;;4.78;77.92;96562.78;5017472;28;20203;-78
2022/01/11 00:05:46;;;;;;;12.63;9.80;;;;;;;4.80;78.03;96563.50;5022396;28;20214;-78
2022/01/11 00:08:13;;;;;;;10.87;9.30;;;;;;;4.81;77.93;96560.78;5037135;28;20670;-79
2022/01/11 00:10:48;;;;;;;11.67;9.13;;;;;;;4.83;77.66;96560.69;5033175;28;20219;-78
2022/01/11 00:13:21;;;;;;;10.50;9.00;;;;;;;4.82;77.77;96561.59;5017682;28;20202;-79
2022/01/11 00:15:49;;;;;;;13.33;9.83;;;;;;;4.76;77.98;96550.16;5029994;28;20890;-79
2022/01/11 00:18:16;;;;;;;13.27;9.43;;;;;;;4.76;77.99;96557.81;5036571;28;20666;-79
2022/01/11 00:20:43;;;;;;;12.80;9.30;;;;;;;4.76;78.05;96565.47;5031119;28;20281;-79
2022/01/11 00:25:56;;;;;;;13.50;9.47;;;;;;;4.81;78.23;96572.78;5016956;28;20685;-79
2022/01/11 00:28:29;;;;;;;11.73;9.13;;;;;;;4.80;78.41;96573.69;5029274;28;20202;-79
2022/01/11 00:30:58;;;;;;;14.53;10.13;;;;;;;4.78;78.14;96576.38;5020539;28;20238;-79
2022/01/11 00:33:36;;;;;;;11.77;9.67;;;;;;;4.80;78.23;96578.78;5027333;28;20208;-79
2022/01/11 00:36:03;;;;;;;13.23;9.90;;;;;;;4.79;78.26;96588.19;5037686;28;20225;-79
2022/01/11 00:38:32;;;;;;;12.80;9.77;;;;;;;4.78;78.56;96588.31;5026506;28;20226;-79
2022/01/11 00:41:01;;;;;;;11.80;9.47;;;;;;;4.76;78.52;96579.94;5023260;28;20241;-79
2022/01/11 00:43:30;;;;;;;13.67;9.80;;;;;;;4.79;78.44;96587.38;5033480;28;20571;-79
2022/01/11 00:45:58;;;;;;;12.33;9.80;;;;;;;4.76;78.10;96585.88;5021324;28;20210;-79
2022/01/11 00:48:25;;;;;;;12.80;9.50;;;;;;;4.74;78.51;96592.00;5017704;28;20203;-79
2022/01/11 00:50:52;;;;;;;15.13;10.20;;;;;;;4.71;78.84;96599.88;5027406;28;20226;-79
2022/01/11 00:53:19;;;;;;;13.07;9.23;;;;;;;4.71;78.94;96597.34;5036860;28;20206;-78
2022/01/11 00:55:47;;;;;;;13.07;9.90;;;;;;;4.71;78.97;96607.53;5038241;28;20206;-78
2022/01/11 00:58:14;;;;;;;13.50;10.13;;;;;;;4.71;79.16;96605.81;5035632;28;20213;-78
2022/01/11 01:00:42;;;;;;;16.20;10.07;;;;;;;4.76;78.90;96613.13;5035629;28;20225;-79
2022/01/11 01:03:09;;;;;;;12.27;10.10;;;;;;;4.78;78.48;96613.81;5037323;28;20205;-79
2022/01/11 01:05:35;;;;;;;15.73;10.23;;;;;;;4.76;78.36;96608.81;5029924;28;20219;-79
2022/01/11 01:08:03;;;;;;;13.90;10.33;;;;;;;4.79;78.25;96618.00;5030820;28;20657;-79
2022/01/11 01:10:35;;;;;;;13.20;10.10;;;;;;;4.77;78.14;96612.19;5031293;28;20223;-80
2022/01/11 01:13:04;;;;;;;15.40;10.27;;;;;;;4.76;78.09;96610.56;5017425;28;20382;-78
2022/01/11 01:15:34;;;;;;;12.83;9.57;;;;;;;4.62;78.67;96611.56;5033112;28;20215;-79
2022/01/11 01:18:02;;;;;;;12.70;10.30;;;;;;;4.56;79.10;96613.78;5036744;28;20571;-79
2022/01/11 01:20:28;;;;;;;14.67;9.50;;;;;;;4.50;79.62;96620.16;5027359;28;20643;-79
2022/01/11 01:22:55;;;;;;;13.13;9.83;;;;;;;4.54;79.62;96624.09;5034950;28;20202;-79
2022/01/11 01:25:23;;;;;;;15.70;9.60;;;;;;;4.58;79.65;96622.94;5036445;28;20222;-79
2022/01/11 01:27:50;;;;;;;10.97;8.87;;;;;;;4.54;79.37;96619.00;5035840;28;20206;-79
2022/01/11 01:30:18;;;;;;;15.03;10.03;;;;;;;4.46;79.70;96623.84;5029516;28;20242;-79
2022/01/11 01:32:44;;;;;;;13.67;9.53;;;;;;;4.50;79.44;96628.59;5021246;28;20195;-79
2022/01/11 01:35:12;;;;;;;14.87;9.73;;;;;;;4.49;79.75;96624.44;5036367;28;20221;-79
2022/01/11 01:37:39;;;;;;;11.90;9.60;;;;;;;4.47;79.65;96626.28;5018767;28;20242;-79
2022/01/11 01:40:08;;;;;;;13.93;9.33;;;;;;;4.44;79.79;96623.13;5016171;28;20269;-79
2022/01/11 01:42:36;;;;;;;12.70;9.67;;;;;;;4.50;79.66;96630.34;5031698;28;20462;-79
2022/01/11 01:45:03;;;;;;;12.63;9.33;;;;;;;4.56;79.32;96629.09;5031264;28;20289;-78
2022/01/11 01:47:30;;;;;;;13.77;9.80;;;;;;;4.57;79.26;96626.44;5027516;28;20267;-78
2022/01/11 01:49:56;;;;;;;12.90;9.13;;;;;;;4.59;78.95;96622.03;5030897;28;20226;-81
2022/01/11 01:52:25;;;;;;;11.70;9.40;;;;;;;4.51;79.25;96625.13;5016086;28;20203;-78
2022/01/11 01:54:52;;;;;;;11.53;9.17;;;;;;;4.51;79.18;96626.88;5019025;28;20210;-79
2022/01/11 01:57:19;;;;;;;14.00;9.50;;;;;;;4.47;80.26;96617.81;5036024;28;20222;-78
2022/01/11 01:59:45;;;;;;;12.20;9.50;;;;;;;4.54;79.95;96625.84;5033855;28;20233;-78
2022/01/11 02:02:13;;;;;;;13.80;9.67;;;;;;;4.60;79.72;96620.28;5035347;28;20206;-79
2022/01/11 02:04:40;;;;;;;12.90;9.87;;;;;;;4.66;79.15;96624.91;5034766;28;20222;-80
2022/01/11 02:07:07;;;;;;;12.73;9.13;;;;;;;4.66;78.85;96627.47;5016045;28;20210;-79
2022/01/11 02:09:35;;;;;;;10.93;9.30;;;;;;;4.68;78.50;96630.72;5015590;28;20694;-78
2022/01/11 02:12:02;;;;;;;13.37;9.40;;;;;;;4.70;78.64;96628.88;5017182;28;20205;-79
2022/01/11 02:14:29;;;;;;;12.97;9.60;;;;;;;4.71;78.41;96631.31;5025658;28;20214;-79
2022/01/11 02:17:00;;;;;;;13.10;9.83;;;;;;;4.73;78.35;96626.91;5032155;28;20689;-79
2022/01/11 02:19:27;;;;;;;12.10;9.77;;;;;;;4.74;78.30;96633.63;5015425;28;20206;-79
2022/01/11 02:21:55;;;;;;;13.80;9.60;;;;;;;4.77;78.00;96635.16;5033420;28;20202;-79
2022/01/11 02:24:21;;;;;;;11.87;10.03;;;;;;;4.76;78.13;96638.63;5036297;28;20574;-79
2022/01/11 02:26:48;;;;;;;10.87;9.00;;;;;;;4.77;78.16;96642.81;5025456;28;20195;-79
2022/01/11 02:29:14;;;;;;;13.07;10.17;;;;;;;4.77;78.21;96640.25;5028021;28;20662;-78
2022/01/11 02:31:40;;;;;;;12.60;10.20;;;;;;;4.75;78.50;96640.38;5016419;28;20225;-79
2022/01/11 02:34:07;;;;;;;13.20;9.83;;;;;;;4.77;78.27;96645.34;5015790;28;20226;-78
2022/01/11 02:36:36;;;;;;;13.43;10.50;;;;;;;4.78;78.32;96646.97;5032471;28;20225;-78
2022/01/11 02:39:05;;;;;;;12.83;9.37;;;;;;;4.72;78.50;96648.25;5027171;28;20778;-78
2022/01/11 02:41:31;;;;;;;11.73;9.47;;;;;;;4.75;78.35;96649.75;5019756;28;20218;-79
2022/01/11 02:43:59;;;;;;;12.63;9.93;;;;;;;4.72;78.49;96645.69;5028658;28;20585;-79
2022/01/11 02:46:26;;;;;;;14.70;10.00;;;;;;;4.71;78.58;96646.63;5018186;28;20679;-79
2022/01/11 02:48:55;;;;;;;13.07;9.40;;;;;;;4.61;78.77;96645.69;5038666;28;20206;-78
2022/01/11 02:51:24;;;;;;;11.93;9.77;;;;;;;4.63;79.07;96645.53;5036196;28;20590;-79
2022/01/11 02:53:53;;;;;;;12.07;10.00;;;;;;;4.65;78.96;96649.63;5018706;28;20591;-78
2022/01/11 02:56:22;;;;;;;12.40;9.33;;;;;;;4.69;78.37;96647.66;5031922;28;20198;-79
2022/01/11 02:58:49;;;;;;;12.40;9.53;;;;;;;4.69;78.26;96650.19;5025019;28;20195;-78
2022/01/11 03:01:15;;;;;;;12.80;9.60;;;;;;;4.68;78.25;96651.94;5019926;28;20227;-78
2022/01/11 03:03:42;;;;;;;14.10;10.00;;;;;;;4.67;78.09;96649.50;5019110;28;20213;-79
2022/01/11 03:06:09;;;;;;;13.23;9.77;;;;;;;4.69;78.20;96645.91;5029807;28;20202;-79
2022/01/11 03:08:38;;;;;;;13.87;10.40;;;;;;;4.69;77.94;96647.66;5038735;28;20267;-79
2022/01/11 03:11:06;;;;;;;13.77;10.60;;;;;;;4.57;78.34;96651.13;5020588;28;20280;-78
2022/01/11 03:13:35;;;;;;;15.87;10.43;;;;;;;4.55;79.09;96652.97;5038611;28;20779;-79
2022/01/11 03:16:03;;;;;;;12.57;9.77;;;;;;;4.44;79.14;96651.19;5038896;28;20198;-79
2022/01/11 03:18:29;;;;;;;14.80;10.27;;;;;;;4.50;79.20;96661.75;5038936;28;20225;-78
2022/01/11 03:20:57;;;;;;;13.03;9.30;;;;;;;4.56;78.79;96655.41;5037895;28;20225;-79
2022/01/11 03:23:24;;;;;;;13.57;9.83;;;;;;;4.55;79.06;96661.44;5029990;28;20191;-79
2022/01/11 03:25:52;;;;;;;11.57;9.13;;;;;;;4.59;78.74;96660.28;5029445;28;20205;-79
2022/01/11 03:28:19;;;;;;;13.30;9.67;;;;;;;4.62;78.70;96664.34;5035257;28;20198;-79
2022/01/11 03:30:49;;;;;;;11.63;8.97;;;;;;;4.61;78.13;96661.00;5033137;28;20238;-79
2022/01/11 03:33:15;;;;;;;12.33;9.70;;;;;;;4.57;78.21;96662.13;5019404;28;20206;-78
2022/01/11 03:35:42;;;;;;;11.33;9.23;;;;;;;4.40;78.76;96668.47;5019191;28;20396;-79
2022/01/11 03:38:12;;;;;;;11.57;9.50;;;;;;;4.45;78.76;96665.56;5020117;28;20246;-79
2022/01/11 03:40:42;;;;;;;10.60;9.10;;;;;;;4.49;78.40;96664.41;5036818;28;20256;-78
2022/01/11 03:43:09;;;;;;;12.27;9.23;;;;;;;4.51;78.37;96670.22;5023767;28;20202;-79
2022/01/11 03:45:36;;;;;;;10.77;9.00;;;;;;;4.57;78.30;96671.53;5018637;28;20245;-78
2022/01/11 03:48:06;;;;;;;10.53;8.90;;;;;;;4.34;78.64;96668.09;5033219;28;20692;-79
2022/01/11 03:50:33;;;;;;;11.27;9.17;;;;;;;4.30;78.90;96662.41;5033970;28;20223;-79
2022/01/11 03:53:09;;;;;;;11.60;8.93;;;;;;;4.37;78.90;96668.69;5025544;28;20194;-79
2022/01/11 03:55:46;;;;;;;12.40;9.17;;;;;;;4.44;78.38;96672.41;5034662;28;20705;-79
2022/01/11 03:58:15;;;;;;;12.03;8.43;;;;;;;4.43;78.39;96667.41;5019571;28;20218;-79
2022/01/11 04:00:42;;;;;;;10.93;8.90;;;;;;;4.42;78.13;96674.28;5018575;28;20237;-78
2022/01/11 04:03:10;;;;;;;11.03;8.57;;;;;;;4.28;78.71;96663.44;5018871;28;20235;-78
2022/01/11 04:05:37;;;;;;;11.17;8.97;;;;;;;4.19;79.22;96664.94;5033595;28;20222;-79
2022/01/11 04:08:04;;;;;;;11.30;8.60;;;;;;;4.32;79.22;96667.38;5022347;28;20294;-79
2022/01/11 04:10:31;;;;;;;12.97;9.20;;;;;;;4.39;78.89;96676.22;5031029;28;20222;-79
2022/01/11 04:12:57;;;;;;;11.73;8.90;;;;;;;4.48;78.64;96678.09;5038081;28;20214;-79
2022/01/11 04:15:24;;;;;;;12.50;9.23;;;;;;;4.49;78.18;96672.06;5026015;28;20850;-79
2022/01/11 04:17:50;;;;;;;10.83;8.77;;;;;;;4.56;77.91;96672.44;5027430;28;20233;-79
2022/01/11 04:20:22;;;;;;;12.63;9.00;;;;;;;4.58;77.54;96662.94;5035538;28;20230;-79
2022/01/11 04:22:48;;;;;;;10.30;9.07;;;;;;;4.57;77.23;96677.44;5037837;28;20225;-79
2022/01/11 04:25:15;;;;;;;11.77;8.90;;;;;;;4.56;77.63;96668.16;5037552;28;20223;-79
2022/01/11 04:27:41;;;;;;;10.83;9.07;;;;;;;4.57;77.79;96674.88;5029809;28;20701;-78
2022/01/11 04:30:09;;;;;;;11.50;9.17;;;;;;;4.54;77.39;96666.66;5028165;28;20230;-78
2022/01/11 04:32:35;;;;;;;11.67;9.53;;;;;;;4.58;77.50;96673.97;5036710;28;20195;-78
2022/01/11 04:35:02;;;;;;;11.97;8.70;;;;;;;4.58;77.77;96673.97;5023288;28;20693;-79
2022/01/11 04:37:30;;;;;;;10.17;8.73;;;;;;;4.61;77.30;96670.38;5029488;28;20213;-78
2022/01/11 04:39:57;;;;;;;9.23;8.23;;;;;;;4.66;77.17;96678.47;5042861;28;20233;-78
2022/01/11 04:42:24;;;;;;;13.33;9.70;;;;;;;4.68;77.17;96679.19;5041276;28;20198;-79
2022/01/11 04:44:51;;;;;;;10.70;8.50;;;;;;;4.71;77.10;96673.88;5042995;28;21013;-79
2022/01/11 04:47:18;;;;;;;11.47;8.40;;;;;;;4.72;76.72;96686.50;5028634;28;20203;-78
2022/01/11 04:49:44;;;;;;;13.03;9.10;;;;;;;4.70;77.14;96680.69;5028226;28;20242;-79
2022/01/11 04:52:11;;;;;;;11.83;9.10;;;;;;;4.72;76.90;96693.34;5021915;28;20249;-78
2022/01/11 04:54:40;;;;;;;11.07;8.93;;;;;;;4.73;76.64;96693.25;5023502;28;20223;-78
2022/01/11 04:57:07;;;;;;;10.73;8.83;;;;;;;4.76;76.38;96697.31;5023204;28;20260;-79
2022/01/11 04:59:34;;;;;;;11.80;8.40;;;;;;;4.75;76.35;96695.69;5021661;28;20235;-78
2022/01/11 05:02:00;;;;;;;12.67;9.40;;;;;;;4.75;76.68;96696.50;5013972;28;20221;-79
2022/01/11 05:04:26;;;;;;;10.23;8.90;;;;;;;4.77;76.45;96696.38;5013904;28;20218;-79
2022/01/11 05:06:55;;;;;;;11.40;8.83;;;;;;;4.76;76.34;96695.56;5015448;28;20200;-79
2022/01/11 05:09:21;;;;;;;12.33;9.37;;;;;;;4.57;77.00;96691.94;5015270;28;20611;-80
2022/01/11 05:11:49;;;;;;;12.83;9.40;;;;;;;4.59;76.96;96695.19;5039215;28;20213;-79
2022/01/11 05:14:16;;;;;;;14.03;9.43;;;;;;;4.63;76.89;96702.47;5021635;28;20222;-79
2022/01/11 05:16:42;;;;;;;13.80;9.87;;;;;;;4.61;76.90;96703.53;5039386;28;20206;-80
2022/01/11 05:19:12;;;;;;;12.43;9.30;;;;;;;4.62;77.13;96703.41;5027827;28;20214;-78
2022/01/11 05:21:39;;;;;;;13.13;10.03;;;;;;;4.59;77.01;96705.38;5020088;28;20265;-79
2022/01/11 05:24:06;;;;;;;12.30;9.23;;;;;;;4.30;78.10;96712.56;5008985;28;20230;-79
2022/01/11 05:26:33;;;;;;;13.50;9.90;;;;;;;4.30;78.42;96715.13;5015182;28;20218;-79
2022/01/11 05:29:00;;;;;;;11.73;9.50;;;;;;;4.37;78.64;96706.94;5028238;28;20237;-79
2022/01/11 05:31:27;;;;;;;13.47;9.97;;;;;;;4.47;78.75;96715.53;5019691;28;20230;-79
2022/01/11 05:33:53;;;;;;;14.07;10.40;;;;;;;4.55;78.02;96715.00;5010060;28;20632;-79
2022/01/11 05:36:20;;;;;;;16.07;10.83;;;;;;;4.47;78.56;96715.53;4999364;28;20242;-78
2022/01/11 05:38:46;;;;;;;14.33;9.80;;;;;;;4.42;78.35;96712.53;4998659;28;20237;-79
2022/01/11 05:41:13;;;;;;;12.60;10.43;;;;;;;4.37;78.33;96716.31;5015138;28;20237;-79
2022/01/11 05:43:39;;;;;;;14.70;9.87;;;;;;;4.41;78.29;96725.38;5021013;28;20206;-78
2022/01/11 05:46:07;;;;;;;14.70;10.77;;;;;;;4.39;78.65;96720.38;5014409;28;20223;-79
2022/01/11 05:48:34;;;;;;;12.30;10.27;;;;;;;4.33;78.56;96718.28;5016986;28;20195;-78
2022/01/11 05:51:01;;;;;;;12.03;9.67;;;;;;;4.40;78.89;96723.75;5009472;28;20225;-80
2022/01/11 05:53:28;;;;;;;14.27;9.27;;;;;;;4.54;89.52;96727.84;5008005;28;20218;-79
2022/01/11 05:55:54;;;;;;;13.93;10.97;;;;;;;4.37;79.08;96745.19;5017394;28;20203;-79
2022/01/11 05:58:21;;;;;;;15.43;11.30;;;;;;;4.45;78.95;96736.97;5017677;28;20218;-78
2022/01/11 06:00:47;;;;;;;13.77;10.70;;;;;;;4.49;78.62;96746.84;5033952;28;20593;-79
2022/01/11 06:03:15;;;;;;;12.80;9.87;;;;;;;4.53;78.26;96749.19;5027160;28;20198;-79
2022/01/11 06:05:42;;;;;;;12.77;10.23;;;;;;;4.58;77.74;96747.13;5036912;28;20214;-79
2022/01/11 06:08:09;;;;;;;12.13;10.07;;;;;;;4.49;80.67;96744.28;5021964;28;20206;-79
2022/01/11 06:10:36;;;;;;;13.03;10.53;;;;;;;4.34;79.18;96760.69;5018097;28;20223;-78
2022/01/11 06:13:03;;;;;;;16.17;11.17;;;;;;;4.24;81.88;96759.69;5006046;28;20192;-78
2022/01/11 06:15:30;;;;;;;15.53;11.77;;;;;;;4.30;79.92;96756.72;5007541;28;20234;-79
2022/01/11 06:17:57;;;;;;;14.77;11.17;;;;;;;4.21;80.44;96754.03;4999421;28;20226;-78
2022/01/11 06:20:28;;;;;;;16.30;11.77;;;;;;;4.01;81.02;96756.25;5004268;28;20222;-79
2022/01/11 06:22:55;;;;;;;16.50;11.57;;;;;;;4.13;80.90;96763.03;5018033;28;20638;-78
2022/01/11 06:25:22;;;;;;;15.27;10.87;;;;;;;4.22;80.64;96764.13;5000523;28;20216;-79
2022/01/11 06:27:49;;;;;;;14.77;11.27;;;;;;;4.13;80.30;96770.66;5016091;28;20248;-79
2022/01/11 06:30:16;;;;;;;19.13;11.87;;;;;;;4.02;81.28;96773.16;5010162;28;20223;-79
2022/01/11 06:32:44;;;;;;;17.23;11.57;;;;;;;3.89;82.22;96779.19;5009916;28;20203;-82
2022/01/11 06:35:15;;;;;;;15.87;11.57;;;;;;;3.91;82.88;96772.25;5008098;28;20313;-78
2022/01/11 06:37:44;;;;;;;29.57;20.97;;;;;;;4.06;82.46;96774.56;5012951;28;20222;-80
2022/01/11 06:40:12;;;;;;;22.10;13.13;;;;;;;4.04;81.33;96780.69;5010807;28;20230;-80
2022/01/11 06:42:39;;;;;;;17.93;12.37;;;;;;;4.04;81.23;96775.59;5014519;28;20236;-80
2022/01/11 06:45:07;;;;;;;18.43;12.20;;;;;;;4.10;81.36;96775.97;5016501;28;20237;-80
2022/01/11 06:47:33;;;;;;;14.13;10.90;;;;;;;4.23;80.63;96775.13;5016083;28;20203;-79
2022/01/11 06:50:00;;;;;;;15.37;11.30;;;;;;;4.22;79.89;96781.97;5016410;28;20246;-80
2022/01/11 06:52:26;;;;;;;16.27;12.30;;;;;;;4.24;80.14;96782.63;5016010;28;20203;-79
2022/01/11 06:54:54;;;;;;;17.43;11.57;;;;;;;4.27;79.92;96787.53;5016529;28;20214;-80
2022/01/11 06:57:21;;;;;;;13.63;11.30;;;;;;;4.35;79.68;96789.56;5016839;28;20203;-80
2022/01/11 06:59:50;;;;;;;14.33;10.87;;;;;;;4.41;79.19;96789.13;5021842;28;20234;-79
2022/01/11 07:02:17;;;;;;;19.13;12.47;;;;;;;4.48;79.10;96796.22;5031186;28;20205;-79
2022/01/11 07:04:43;;;;;;;14.07;10.33;;;;;;;4.50;78.68;96798.66;5017353;28;20222;-80
2022/01/11 07:07:10;;;;;;;13.70;10.57;;;;;;;4.53;78.07;96800.19;5014334;28;20218;-79
2022/01/11 07:09:37;;;;;;;13.67;10.33;;;;;;;4.56;78.03;96805.06;4998188;28;20227;-80
2022/01/11 07:12:06;;;;;;;16.27;11.50;;;;;;;4.59;77.70;96803.13;5017516;28;20263;-80
2022/01/11 07:14:32;;;;;;;14.60;11.80;;;;;;;4.61;77.86;96810.66;5017734;28;20218;-79
2022/01/11 07:16:59;;;;;;;13.20;11.17;;;;;;;4.63;77.41;96812.16;5024730;28;20206;-80
2022/01/11 07:19:29;;;;;;;15.23;10.87;;;;;;;4.64;77.18;96816.34;5017720;28;20226;-80
2022/01/11 07:21:58;;;;;;;12.30;9.93;;;;;;;4.65;77.22;96819.69;5005916;28;20234;-80
2022/01/11 07:24:26;;;;;;;13.23;10.37;;;;;;;4.65;76.92;96828.16;5024088;28;20243;-80
2022/01/11 07:26:53;;;;;;;14.30;11.10;;;;;;;4.62;76.87;96819.94;5029106;28;20669;-81
2022/01/11 07:29:21;;;;;;;15.60;10.80;;;;;;;4.60;76.98;96824.34;5022319;28;20291;-81
2022/01/11 07:31:48;;;;;;;14.97;11.00;;;;;;;4.61;76.76;96823.41;5006057;28;20214;-81
2022/01/11 07:34:16;;;;;;;13.00;10.60;;;;;;;4.63;77.04;96827.47;5016293;28;20249;-79
2022/01/11 07:36:43;;;;;;;14.90;10.97;;;;;;;4.63;76.51;96829.19;5016591;28;20199;-80
2022/01/11 07:39:13;;;;;;;14.37;11.20;;;;;;;4.66;76.62;96834.91;5038666;23;20314;-84
2022/01/11 07:41:40;;;;;;;17.00;12.10;;;;;;;4.66;76.73;96829.78;5028926;28;20239;-80
2022/01/11 07:44:06;;;;;;;14.10;11.13;;;;;;;4.69;76.80;96832.13;5029761;28;20565;-85
2022/01/11 07:46:34;;;;;;;15.50;11.23;;;;;;;4.68;76.62;96839.88;5037017;28;20194;-83
2022/01/11 07:49:02;;;;;;;14.50;10.83;;;;;;;4.66;76.50;96839.19;5045845;28;20217;-83
2022/01/11 07:51:29;;;;;;;14.90;11.07;;;;;;;4.68;76.29;96839.88;5030222;28;20276;-81
2022/01/11 07:53:56;;;;;;;16.00;10.97;;;;;;;4.62;76.35;96842.91;5029070;28;20681;-81
2022/01/11 07:56:22;;;;;;;13.10;10.47;;;;;;;4.59;76.71;96846.47;5022349;28;20214;-83
2022/01/11 07:58:49;;;;;;;14.57;10.37;;;;;;;4.50;76.46;96845.38;5030665;28;20581;-84
2022/01/11 08:01:16;;;;;;;13.23;10.57;;;;;;;4.56;76.66;96840.78;5046967;28;20237;-82
2022/01/11 08:03:46;;;;;;;13.30;11.00;;;;;;;4.62;76.58;96841.13;5039843;28;20209;-82
2022/01/11 08:06:12;;;;;;;12.87;10.93;;;;;;;4.53;77.15;96844.34;5043670;28;20202;-82
2022/01/11 08:08:39;;;;;;;15.37;11.20;;;;;;;4.52;76.88;96847.81;5043056;28;20206;-82
2022/01/11 08:11:05;;;;;;;13.57;10.77;;;;;;;4.57;76.79;96844.94;5037986;28;20234;-84
2022/01/11 08:13:32;;;;;;;13.53;10.33;;;;;;;4.63;76.03;96844.50;5034937;28;20562;-82
2022/01/11 08:15:58;;;;;;;13.10;10.80;;;;;;;4.55;76.11;96839.97;5034882;28;20664;-84
2022/01/11 08:18:25;;;;;;;11.57;9.73;;;;;;;4.57;75.56;96845.78;5035093;28;20218;-82
2022/01/11 08:20:53;;;;;;;11.63;10.20;;;;;;;4.60;75.73;96844.75;5036535;28;20274;-83
2022/01/11 08:23:19;;;;;;;13.40;10.43;;;;;;;4.65;75.81;96848.56;5034756;28;20206;-83
2022/01/11 08:25:46;;;;;;;13.23;10.90;;;;;;;4.71;75.58;96847.34;5047242;28;20684;-85
2022/01/11 08:28:12;;;;;;;13.20;11.63;;;;;;;4.77;75.47;96842.63;5035925;28;20872;-84
2022/01/11 08:30:39;;;;;;;13.43;10.70;;;;;;;4.83;74.82;96837.06;5043952;28;20228;-81
2022/01/11 08:33:06;;;;;;;11.80;10.00;;;;;;;4.83;74.50;96846.44;5054718;28;20205;-83
2022/01/11 08:35:33;;;;;;;12.30;9.87;;;;;;;4.83;74.39;96847.25;5044051;28;20201;-84
2022/01/11 08:38:01;;;;;;;10.80;9.33;;;;;;;4.85;74.30;96853.06;5040056;28;20194;-84
2022/01/11 08:40:28;;;;;;;11.50;9.20;;;;;;;4.89;73.90;96852.84;5041072;28;20230;-80
2022/01/11 08:42:54;;;;;;;11.40;9.37;;;;;;;4.67;73.46;96856.13;5039024;28;20193;-84
2022/01/11 08:45:21;;;;;;;12.67;10.03;;;;;;;4.35;74.48;96854.09;5038680;28;20264;-82
2022/01/11 08:47:48;;;;;;;11.77;9.87;;;;;;;4.31;75.34;96862.06;5035313;28;20657;-83
2022/01/11 08:50:15;;;;;;;12.80;9.97;;;;;;;4.20;76.03;96856.91;5044391;28;20301;-84
2022/01/11 08:52:44;;;;;;;11.80;9.80;;;;;;;4.29;76.55;96867.28;5041503;28;20198;-85
2022/01/11 08:55:13;;;;;;;12.47;10.57;;;;;;;4.46;76.27;96872.00;5035499;28;20198;-84
2022/01/11 08:57:39;;;;;;;14.17;9.97;;;;;;;4.60;75.55;96883.00;5045511;28;20201;-85
2022/01/11 09:00:13;;;;;;;13.47;10.60;;;;;;;4.70;75.21;96883.97;5052239;28;20240;-84
2022/01/11 09:02:39;;;;;;;15.10;11.43;;;;;;;4.76;75.54;96881.00;5032227;28;20229;-84
2022/01/11 09:05:06;;;;;;;14.43;11.40;;;;;;;4.80;75.37;96883.22;5034669;28;20206;-85
2022/01/11 09:07:33;;;;;;;14.47;11.13;;;;;;;4.87;75.33;96883.59;5044017;28;20201;-84
2022/01/11 09:09:59;;;;;;;15.00;11.60;;;;;;;4.89;75.17;96891.13;5048642;28;20276;-84
2022/01/11 09:12:27;;;;;;;17.00;13.43;;;;;;;4.81;75.11;96889.16;5033453;28;20268;-84
2022/01/11 09:14:54;;;;;;;17.30;12.83;;;;;;;4.86;74.83;96894.72;5029584;28;20210;-79
2022/01/11 09:17:20;;;;;;;14.23;12.07;;;;;;;4.83;75.03;96890.63;5029907;28;20206;-84
2022/01/11 09:19:47;;;;;;;15.57;12.07;;;;;;;4.89;75.47;96891.13;5036271;28;20225;-81
2022/01/11 09:22:13;;;;;;;14.00;11.20;;;;;;;4.87;74.80;96896.34;5067066;28;20231;-84
2022/01/11 09:24:40;;;;;;;14.10;10.87;;;;;;;4.95;75.02;96896.63;5056588;28;20201;-84
2022/01/11 09:27:07;;;;;;;17.13;12.07;;;;;;;4.90;74.78;96900.41;5052188;28;20194;-82
2022/01/11 09:29:36;;;;;;;15.63;12.10;;;;;;;4.92;75.04;96901.94;5051707;28;20232;-82
2022/01/11 09:32:05;;;;;;;16.60;11.93;;;;;;;4.93;74.90;96898.47;5052103;28;20203;-82
2022/01/11 09:34:32;;;;;;;15.60;12.00;;;;;;;5.01;74.79;96905.56;5052105;28;20202;-81
2022/01/11 09:36:59;;;;;;;15.80;10.97;;;;;;;4.92;74.54;96908.78;5051632;28;20597;-84
2022/01/11 09:39:26;;;;;;;13.83;11.90;;;;;;;4.96;74.26;96907.66;5051221;28;20268;-80
2022/01/11 09:41:52;;;;;;;16.27;12.10;;;;;;;4.91;74.54;96913.06;5051599;28;20205;-84
2022/01/11 09:44:20;;;;;;;14.43;12.10;;;;;;;4.97;74.14;96912.66;5050836;28;20288;-82
2022/01/11 09:46:48;;;;;;;13.83;11.93;;;;;;;5.03;74.06;96909.63;5050126;28;20225;-81
2022/01/11 09:49:14;;;;;;;14.50;11.73;;;;;;;4.98;73.86;96914.28;5050001;28;20225;-82
2022/01/11 09:51:41;;;;;;;12.43;10.67;;;;;;;4.90;73.60;96903.78;5050187;28;20209;-84
2022/01/11 09:54:08;;;;;;;14.73;11.43;;;;;;;4.94;73.78;96906.94;5049038;28;20578;-84
2022/01/11 09:56:36;;;;;;;16.53;11.40;;;;;;;4.94;74.41;96901.84;5049888;28;20202;-84
2022/01/11 09:59:02;;;;;;;17.80;12.20;;;;;;;4.91;74.74;96902.88;5050814;28;20287;-84
2022/01/11 10:01:29;;;;;;;14.77;11.03;;;;;;;4.94;74.92;96900.09;5031165;28;20256;-84
2022/01/11 10:04:03;;;;;;;14.20;11.33;;;;;;;5.01;74.33;96890.25;5031690;28;20704;-83
2022/01/11 10:06:30;;;;;;;15.00;11.33;;;;;;;5.08;73.68;96894.81;5030684;28;20238;-84
2022/01/11 10:09:12;;;;;;;12.00;9.73;;;;;;;5.17;73.56;96899.28;5026835;28;20276;-81
2022/01/11 10:11:41;;;;;;;14.93;11.23;;;;;;;5.19;72.62;96896.59;5029821;28;20226;-79
2022/01/11 10:14:18;;;;;;;13.60;10.93;;;;;;;5.19;73.06;96888.94;5029708;28;20213;-84
2022/01/11 10:16:45;;;;;;;13.87;10.80;;;;;;;5.24;73.32;96896.25;5030055;28;20673;-82
2022/01/11 10:19:23;;;;;;;13.27;10.00;;;;;;;5.32;72.39;96896.53;5030856;28;20237;-84
2022/01/11 10:21:50;;;;;;;12.90;9.73;;;;;;;5.21;71.80;96885.34;5050865;28;20702;-84
2022/01/11 10:24:32;;;;;;;10.97;9.27;;;;;;;5.16;71.31;96889.97;5050893;28;20237;-84
2022/01/11 10:27:01;;;;;;;10.07;8.63;;;;;;;5.12;70.98;96890.31;5049365;28;20281;-84
2022/01/11 10:29:31;;;;;;;9.43;8.40;;;;;;;5.00;69.40;96884.34;5049951;28;20224;-83
2022/01/11 10:31:59;;;;;;;9.23;7.67;;;;;;;4.75;70.17;96882.72;5049447;28;20212;-80
2022/01/11 10:34:30;;;;;;;11.20;8.83;;;;;;;4.70;71.43;96886.53;5050969;28;20208;-81
2022/01/11 10:36:57;;;;;;;9.63;8.50;;;;;;;4.94;70.82;96883.97;5049900;28;20213;-83
2022/01/11 10:39:25;;;;;;;10.60;8.70;;;;;;;4.91;70.33;96889.28;5048322;28;20282;-84
2022/01/11 10:41:52;;;;;;;10.30;8.33;;;;;;;5.28;69.58;96877.22;5029906;28;20207;-81
2022/01/11 10:44:47;;;;;;;10.83;8.23;;;;;;;5.36;68.28;96875.75;5029985;28;20206;-85
2022/01/11 10:47:19;;;;;;;11.57;8.80;;;;;;;5.08;68.34;96886.34;5030670;28;20209;-84
2022/01/11 10:49:45;;;;;;;10.53;8.60;;;;;;;4.98;69.06;96885.38;5029267;28;20244;-82
2022/01/11 10:52:17;;;;;;;10.10;8.37;;;;;;;5.03;68.91;96888.41;5028743;28;20206;-83
2022/01/11 10:54:43;;;;;;;10.47;8.90;;;;;;;4.96;68.79;96877.84;5031104;28;20304;-81
2022/01/11 10:57:15;;;;;;;9.73;8.47;;;;;;;5.11;69.55;96889.50;5028197;28;20202;-82
2022/01/11 10:59:42;;;;;;;8.63;7.53;;;;;;;4.95;68.33;96890.69;5026138;28;20289;-84
2022/01/11 11:02:13;;;;;;;10.37;8.33;;;;;;;5.02;68.60;96895.25;5030165;28;20802;-83
2022/01/11 11:04:40;;;;;;;10.47;8.47;;;;;;;5.06;68.82;96896.66;5025568;28;20285;-80
2022/01/11 11:07:14;;;;;;;10.60;8.63;;;;;;;5.44;67.71;96891.31;5023162;28;20823;-80
2022/01/11 11:09:44;;;;;;;9.40;8.40;;;;;;;5.57;67.60;96904.03;5032849;28;20248;-81
2022/01/11 11:12:15;;;;;;;12.33;8.20;;;;;;;5.44;66.53;96901.53;5035020;28;20787;-84
2022/01/11 11:14:50;;;;;;;12.73;8.63;;;;;;;5.21;67.04;96908.31;5034101;28;20195;-84
2022/01/11 11:17:28;;;;;;;9.67;8.10;;;;;;;5.35;67.31;96906.53;5034098;28;20233;-84
2022/01/11 11:20:00;;;;;;;11.13;8.47;;;;;;;5.32;67.10;96904.19;5033319;28;20238;-83
2022/01/11 11:22:27;;;;;;;11.20;8.23;;;;;;;5.30;67.06;96906.03;5034085;28;20645;-83
2022/01/11 11:24:54;;;;;;;9.57;8.03;;;;;;;5.39;66.62;96895.94;5033123;28;20202;-84
2022/01/11 11:27:22;;;;;;;10.90;8.00;;;;;;;5.41;66.37;96896.66;5034183;28;20606;-84
2022/01/11 11:29:49;;;;;;;9.87;8.10;;;;;;;5.33;66.31;96913.47;5034226;28;20638;-83
2022/01/11 11:32:18;;;;;;;9.20;7.73;;;;;;;4.96;66.67;96903.34;5033994;28;20229;-82
2022/01/11 11:34:49;;;;;;;9.33;7.90;;;;;;;4.79;67.93;96904.56;5033029;28;20226;-84